KDYS/DYS METAR and TAF weather

Enter ICAO airport designator
Station Type Date Time Source
KDYS METAR 2019/12/13 00:56 UTC NOAA

KDYS 130056Z AUTO 17004KT 10SM FEW220 09/04 A3000 RMK AO2 SLP161 T00940038 PNO FZRANO $


Station Type Date Time Source
KDYS Decoded METAR 2019/12/13 00:56 UTC NOAA

Abilene, Dyess Air Force Base, TX, United States (KDYS) 32-25-12N 099-51-25W
Dec 12, 2019 - 07:56 PM EST / 2019.12.13 0056 UTC
Wind: from the S (170 degrees) at 5 MPH (4 KT):0
Visibility: 10 mile(s):0
Sky conditions: mostly clear
Temperature: 48.9 F (9.4 C)
Dew Point: 38.8 F (3.8 C)
Relative Humidity: 68%
Pressure (altimeter): 30 in. Hg (1015 hPa)
ob: KDYS 130056Z AUTO 17004KT 10SM FEW220 09/04 A3000 RMK AO2 SLP161 T00940038 PNO FZRANO
cycle: 1

Station Type Date Time Source
KDYS TAF 2019/12/12 23:03 UTC NOAA

TAF KDYS 122300Z 1223/1405 VRB06KT 9999 FEW200 QNH2989INS TX16/1321Z TN05/1312Z

Example: see airport list